Aviation Digital Data Service (ADDS)

Output produced by TAFs form (0715 UTC 25 May 2015)
found at http://www.aviationweather.gov/adds/tafs/
 
KGFL 250543Z 2506/2606 00000KT P6SM BKN250 
     FM251100 VRB03KT P6SM OVC100 
     FM251600 16006KT P6SM OVC080 
     FM251900 18008KT P6SM VCSH SCT045 OVC080 
     FM252200 19009KT 6SM -SHRA BR BKN045 
     FM260300 20005KT P6SM SCT045 OVC100 AMD NOT SKED